Time;durP1;ratioP1;P1;durP2;ratioP2;P2;SDS_P1;SDS_P2;PMS_P1;PMS_P2;Temp;Humidity;BMP_temperature;BMP_pressure;BME280_temperature;BME280_humidity;BME280_pressure;Samples;Min_cycle;Max_cycle;Signal;HPM_P1;HPM_P2
2023/05/23 00:04:45;;;;;;;20.15;13.70;;;;;;;;;;9503478;30;20060;-71
2023/05/23 00:09:39;;;;;;;15.35;11.55;;;;;;;;;;9503839;30;20059;-71
2023/05/23 00:14:34;;;;;;;14.27;11.43;;;;;;;;;;9498976;30;20064;-71
2023/05/23 00:19:27;;;;;;;14.02;12.07;;;;;;;;;;9501932;30;20068;-71
2023/05/23 00:24:21;;;;;;;13.43;11.93;;;;;;;;;;9502586;30;20048;-71
2023/05/23 00:29:15;;;;;;;12.07;10.75;;;;;;;;;;9501985;30;20056;-71
2023/05/23 00:34:08;;;;;;;13.70;12.30;;;;;;;;;;9502014;30;20094;-71
2023/05/23 00:39:01;;;;;;;13.95;12.55;;;;;;;;;;9486734;30;20052;-71
2023/05/23 00:43:55;;;;;;;13.30;11.90;;;;;;;;;;9502525;30;20469;-71
2023/05/23 00:48:48;;;;;;;15.65;12.60;;;;;;;;;;9503156;30;20044;-71
2023/05/23 00:53:42;;;;;;;14.13;12.43;;;;;;;;;;9496995;30;20055;-71
2023/05/23 00:58:35;;;;;;;14.95;12.32;;;;;;;;;;9502000;30;20066;-71
2023/05/23 01:03:29;;;;;;;12.77;11.48;;;;;;;;;;9515873;30;20048;-71
2023/05/23 01:08:22;;;;;;;18.45;11.30;;;;;;;;;;9503536;30;20441;-71
2023/05/23 01:13:21;;;;;;;17.83;12.23;;;;;;;;;;9500309;30;20101;-71
2023/05/23 01:18:32;;;;;;;21.05;11.45;;;;;;;;;;9495980;30;20062;-71
2023/05/23 01:23:47;;;;;;;14.57;11.82;;;;;;;;;;9500110;30;20133;-71
2023/05/23 01:28:44;;;;;;;11.82;10.63;;;;;;;;;;9496855;30;20409;-71
2023/05/23 01:33:37;;;;;;;13.32;12.10;;;;;;;;;;9466226;30;20088;-70
2023/05/23 01:38:30;;;;;;;14.27;11.25;;;;;;;;;;9501476;30;20052;-71
2023/05/23 01:43:24;;;;;;;13.93;11.45;;;;;;;;;;9497172;30;20543;-71
2023/05/23 01:48:19;;;;;;;12.27;11.02;;;;;;;;;;9507884;30;20052;-70
2023/05/23 01:53:15;;;;;;;13.73;11.15;;;;;;;;;;9500892;30;20059;-71
2023/05/23 01:58:09;;;;;;;12.35;11.23;;;;;;;;;;9500654;30;20067;-71
2023/05/23 02:03:01;;;;;;;13.15;11.85;;;;;;;;;;9505334;30;20064;-71
2023/05/23 02:07:57;;;;;;;13.02;11.55;;;;;;;;;;9502741;30;20087;-71
2023/05/23 02:12:50;;;;;;;12.07;10.80;;;;;;;;;;9507161;30;20048;-71
2023/05/23 02:17:45;;;;;;;12.38;11.20;;;;;;;;;;9506760;30;20096;-71
2023/05/23 02:22:38;;;;;;;16.98;12.25;;;;;;;;;;9504195;30;20457;-71
2023/05/23 02:27:33;;;;;;;14.57;11.15;;;;;;;;;;9504817;30;20052;-70
2023/05/23 02:32:28;;;;;;;16.20;14.48;;;;;;;;;;9504625;30;20060;-70
2023/05/23 02:37:22;;;;;;;16.95;14.23;;;;;;;;;;9505549;30;20060;-71
2023/05/23 02:42:15;;;;;;;17.88;15.85;;;;;;;;;;9504505;30;20113;-70
2023/05/23 02:47:09;;;;;;;17.52;15.73;;;;;;;;;;9504483;30;20052;-71
2023/05/23 02:52:02;;;;;;;17.40;14.05;;;;;;;;;;9500082;30;20060;-71
2023/05/23 02:56:57;;;;;;;14.88;12.20;;;;;;;;;;9503589;29;20116;-71
2023/05/23 03:01:50;;;;;;;17.35;12.10;;;;;;;;;;9503708;30;20060;-71
2023/05/23 03:06:46;;;;;;;17.55;15.20;;;;;;;;;;9519000;30;20500;-71
2023/05/23 03:11:39;;;;;;;14.52;12.75;;;;;;;;;;9500143;30;20139;-70
2023/05/23 03:16:33;;;;;;;15.05;12.68;;;;;;;;;;9513838;30;20052;-71
2023/05/23 03:21:26;;;;;;;13.90;11.43;;;;;;;;;;9502703;30;20099;-70
2023/05/23 03:26:20;;;;;;;14.43;11.25;;;;;;;;;;9503083;30;20513;-70
2023/05/23 03:31:14;;;;;;;12.65;11.40;;;;;;;;;;9502677;30;20092;-70
2023/05/23 03:36:08;;;;;;;12.23;11.05;;;;;;;;;;9502807;30;20090;-70
2023/05/23 03:41:02;;;;;;;16.63;12.05;;;;;;;;;;9503906;30;20095;-70
2023/05/23 03:45:58;;;;;;;12.77;11.38;;;;;;;;;;9501727;30;20087;-70
2023/05/23 03:50:52;;;;;;;13.95;11.75;;;;;;;;;;9503450;30;20087;-70
2023/05/23 03:55:45;;;;;;;15.02;11.60;;;;;;;;;;9501657;30;20053;-70
2023/05/23 04:00:38;;;;;;;12.32;11.13;;;;;;;;;;9503560;30;20123;-70
2023/05/23 04:05:32;;;;;;;15.85;11.98;;;;;;;;;;9501939;30;20521;-70
2023/05/23 04:10:26;;;;;;;15.73;11.55;;;;;;;;;;9502571;30;20581;-71
2023/05/23 04:15:20;;;;;;;18.55;12.00;;;;;;;;;;9500022;30;20063;-70
2023/05/23 04:20:19;;;;;;;18.65;12.57;;;;;;;;;;9499344;30;20056;-71
2023/05/23 04:25:12;;;;;;;14.32;13.02;;;;;;;;;;9502071;30;20405;-71
2023/05/23 04:30:15;;;;;;;13.32;12.00;;;;;;;;;;9499256;30;20151;-71
2023/05/23 04:35:09;;;;;;;15.77;11.75;;;;;;;;;;9501294;30;20059;-70
2023/05/23 04:40:07;;;;;;;14.55;11.20;;;;;;;;;;9495170;30;20501;-70
2023/05/23 04:45:40;;;;;;;13.32;10.93;;;;;;;;;;9490764;30;20172;-70
2023/05/23 04:50:51;;;;;;;15.68;11.82;;;;;;;;;;9494700;30;20417;-71
2023/05/23 04:55:45;;;;;;;12.82;11.52;;;;;;;;;;9493126;30;20536;-67
2023/05/23 05:00:41;;;;;;;13.43;12.00;;;;;;;;;;9498062;30;20063;-69
2023/05/23 05:05:40;;;;;;;;;;;;;;;;;;9494753;30;20060;-69
2023/05/23 05:10:33;;;;;;;13.52;11.73;;;;;;;;;;9501175;30;20476;-70
2023/05/23 05:15:26;;;;;;;11.75;10.60;;;;;;;;;;9506979;30;20113;-69
2023/05/23 05:20:23;;;;;;;14.25;11.90;;;;;;;;;;9493198;30;20066;-71
2023/05/23 05:25:17;;;;;;;14.88;11.45;;;;;;;;;;9505456;30;20119;-72
2023/05/23 05:30:12;;;;;;;14.18;12.23;;;;;;;;;;9506036;30;20060;-71
2023/05/23 05:35:14;;;;;;;18.42;11.75;;;;;;;;;;9506096;30;20117;-71
2023/05/23 05:40:10;;;;;;;12.50;11.15;;;;;;;;;;9522602;30;20147;-71
2023/05/23 05:45:10;;;;;;;13.13;11.77;;;;;;;;;;9505893;30;20064;-71
2023/05/23 05:50:07;;;;;;;13.57;12.15;;;;;;;;;;9507169;30;20147;-70
2023/05/23 05:55:00;;;;;;;14.82;11.07;;;;;;;;;;9506547;30;20087;-64
2023/05/23 05:59:53;;;;;;;15.57;12.23;;;;;;;;;;9507449;30;20068;-64
2023/05/23 06:04:46;;;;;;;15.45;12.27;;;;;;;;;;9505658;30;20421;-65
2023/05/23 06:09:40;;;;;;;13.93;12.23;;;;;;;;;;9491063;30;20110;-66
2023/05/23 06:14:33;;;;;;;19.05;12.18;;;;;;;;;;9505204;30;20505;-65
2023/05/23 06:19:26;;;;;;;17.52;15.63;;;;;;;;;;9504970;30;20048;-65
2023/05/23 06:24:20;;;;;;;17.95;14.88;;;;;;;;;;9485967;30;20110;-66
2023/05/23 06:29:13;;;;;;;17.50;15.65;;;;;;;;;;9495744;30;20056;-62
2023/05/23 06:34:07;;;;;;;18.50;16.50;;;;;;;;;;9506289;30;20126;-65
2023/05/23 06:39:01;;;;;;;22.98;15.27;;;;;;;;;;9510854;30;20147;-65
2023/05/23 06:43:55;;;;;;;17.73;15.73;;;;;;;;;;9496422;30;20056;-64
2023/05/23 06:48:50;;;;;;;14.98;13.50;;;;;;;;;;9498742;30;20060;-65
2023/05/23 06:54:00;;;;;;;18.40;14.77;;;;;;;;;;9504856;30;20048;-65
2023/05/23 06:58:53;;;;;;;18.02;14.25;;;;;;;;;;9485641;30;20471;-65
2023/05/23 07:03:46;;;;;;;16.98;12.40;;;;;;;;;;9493822;30;20056;-65
2023/05/23 07:08:39;;;;;;;14.68;13.25;;;;;;;;;;9493382;30;20052;-65
2023/05/23 07:13:34;;;;;;;16.90;13.60;;;;;;;;;;9499145;30;20064;-65
2023/05/23 07:18:28;;;;;;;15.77;14.27;;;;;;;;;;9503628;30;20064;-65
2023/05/23 07:23:23;;;;;;;14.45;13.18;;;;;;;;;;9501788;30;20058;-65
2023/05/23 07:28:17;;;;;;;13.55;12.02;;;;;;;;;;9493633;30;20057;-63
2023/05/23 07:33:11;;;;;;;15.00;10.80;;;;;;;;;;9492159;30;20060;-66
2023/05/23 07:38:09;;;;;;;12.43;11.07;;;;;;;;;;9503959;30;20060;-65
2023/05/23 07:43:04;;;;;;;12.82;11.48;;;;;;;;;;9491721;30;20516;-66
2023/05/23 07:47:56;;;;;;;11.57;10.40;;;;;;;;;;9468793;30;20057;-65
2023/05/23 07:52:50;;;;;;;12.02;10.82;;;;;;;;;;9468838;30;20398;-65
2023/05/23 07:57:51;;;;;;;13.98;12.43;;;;;;;;;;9513684;30;20060;-66
2023/05/23 08:02:45;;;;;;;13.32;11.95;;;;;;;;;;9485916;30;20525;-68
2023/05/23 08:07:45;;;;;;;14.23;12.05;;;;;;;;;;9501002;30;20064;-66
2023/05/23 08:12:39;;;;;;;15.88;9.85;;;;;;;;;;9501829;30;20147;-66
2023/05/23 08:17:40;;;;;;;13.88;12.48;;;;;;;;;;9500636;30;20056;-67
2023/05/23 08:22:36;;;;;;;15.63;11.60;;;;;;;;;;9488683;30;20064;-68
2023/05/23 08:27:30;;;;;;;11.98;10.75;;;;;;;;;;9503705;30;20079;-67
2023/05/23 08:32:30;;;;;;;11.85;10.63;;;;;;;;;;9498409;30;20064;-68
2023/05/23 08:37:25;;;;;;;12.32;11.13;;;;;;;;;;9494284;30;20078;-70
2023/05/23 08:42:17;;;;;;;12.98;11.05;;;;;;;;;;9489286;30;20583;-70
2023/05/23 08:47:12;;;;;;;20.77;9.52;;;;;;;;;;9522069;30;20056;-68
2023/05/23 08:52:17;;;;;;;10.93;9.77;;;;;;;;;;9505289;30;20056;-68
2023/05/23 08:57:12;;;;;;;11.10;10.00;;;;;;;;;;9508195;30;20060;-68
2023/05/23 09:02:12;;;;;;;11.27;10.18;;;;;;;;;;9494246;30;20056;-68
2023/05/23 09:07:06;;;;;;;14.15;10.75;;;;;;;;;;9507731;30;20632;-68
2023/05/23 09:11:59;;;;;;;14.38;9.75;;;;;;;;;;9505376;30;20051;-68
2023/05/23 09:17:02;;;;;;;11.27;9.77;;;;;;;;;;9503805;30;20135;-67
2023/05/23 09:21:57;;;;;;;11.35;9.93;;;;;;;;;;9504685;30;20056;-68
2023/05/23 09:26:58;;;;;;;11.68;7.45;;;;;;;;;;9501823;30;20060;-68
2023/05/23 09:31:52;;;;;;;7.72;6.95;;;;;;;;;;9505883;30;20132;-69
2023/05/23 09:36:46;;;;;;;15.05;7.55;;;;;;;;;;9507274;30;20150;-68
2023/05/23 09:41:40;;;;;;;7.32;6.63;;;;;;;;;;9505673;30;20048;-69
2023/05/23 09:46:35;;;;;;;13.05;7.40;;;;;;;;;;9507491;30;20063;-69
2023/05/23 09:51:28;;;;;;;8.75;6.53;;;;;;;;;;9507157;30;20449;-69
2023/05/23 09:56:22;;;;;;;12.68;6.30;;;;;;;;;;9504491;30;20060;-69
2023/05/23 10:01:16;;;;;;;9.52;6.47;;;;;;;;;;9503246;30;20496;-69
2023/05/23 10:06:25;;;;;;;6.40;5.70;;;;;;;;;;9475836;30;20347;-69
2023/05/23 10:11:34;;;;;;;13.43;6.20;;;;;;;;;;9506341;30;20056;-69
2023/05/23 10:16:52;;;;;;;8.07;6.25;;;;;;;;;;9505827;30;20067;-69
2023/05/23 10:21:50;;;;;;;10.05;6.05;;;;;;;;;;9506730;30;20564;-70
2023/05/23 10:26:44;;;;;;;9.98;5.80;;;;;;;;;;9520463;30;20064;-70
2023/05/23 10:31:40;;;;;;;9.55;5.32;;;;;;;;;;9485992;30;20052;-68
2023/05/23 10:36:42;;;;;;;8.88;4.60;;;;;;;;;;9499143;30;20478;-68
2023/05/23 10:41:50;;;;;;;6.82;4.28;;;;;;;;;;9520152;30;20119;-69
2023/05/23 10:47:01;;;;;;;7.35;4.78;;;;;;;;;;9519099;30;20457;-67
2023/05/23 10:51:55;;;;;;;6.30;5.05;;;;;;;;;;9499065;30;20513;-66
2023/05/23 10:57:02;;;;;;;7.75;3.92;;;;;;;;;;9504252;30;20106;-67
2023/05/23 11:01:56;;;;;;;8.07;4.25;;;;;;;;;;9504142;30;20474;-68
2023/05/23 11:06:49;;;;;;;7.03;4.22;;;;;;;;;;9504785;30;20096;-67
2023/05/23 11:12:03;;;;;;;3.28;2.92;;;;;;;;;;9503201;30;20489;-69
2023/05/23 11:16:57;;;;;;;4.57;3.90;;;;;;;;;;9503946;30;20086;-70
2023/05/23 11:22:02;;;;;;;7.60;4.15;;;;;;;;;;9504786;30;20059;-68
2023/05/23 11:27:00;;;;;;;6.00;4.57;;;;;;;;;;9504595;30;20055;-68
2023/05/23 11:31:57;;;;;;;6.70;4.10;;;;;;;;;;9494265;30;20068;-68
2023/05/23 11:36:56;;;;;;;6.03;4.10;;;;;;;;;;9467134;30;20064;-67
2023/05/23 11:42:01;;;;;;;8.45;4.18;;;;;;;;;;9468624;30;20057;-67
2023/05/23 11:47:05;;;;;;;4.00;3.60;;;;;;;;;;9499123;30;20084;-68
2023/05/23 11:52:06;;;;;;;6.72;3.58;;;;;;;;;;9504460;29;20475;-67
2023/05/23 11:56:59;;;;;;;4.80;3.95;;;;;;;;;;9481149;30;20060;-68
2023/05/23 12:01:52;;;;;;;11.23;4.03;;;;;;;;;;9493404;30;20104;-68
2023/05/23 12:06:47;;;;;;;3.80;3.38;;;;;;;;;;9468681;30;20056;-68
2023/05/23 12:11:41;;;;;;;7.50;3.33;;;;;;;;;;9467887;30;20067;-68
2023/05/23 12:16:35;;;;;;;11.23;3.75;;;;;;;;;;9467750;30;20056;-68
2023/05/23 12:22:07;;;;;;;4.78;3.90;;;;;;;;;;9498915;30;20052;-68
2023/05/23 12:27:02;;;;;;;7.07;3.45;;;;;;;;;;9502211;30;20067;-68
2023/05/23 12:32:00;;;;;;;7.88;3.58;;;;;;;;;;9491283;30;20064;-68
2023/05/23 12:36:58;;;;;;;8.05;3.25;;;;;;;;;;9502076;30;20064;-68
2023/05/23 12:42:10;;;;;;;5.93;2.65;;;;;;;;;;9503592;30;20434;-68
2023/05/23 12:47:06;;;;;;;6.05;3.30;;;;;;;;;;9502772;30;20079;-68
2023/05/23 12:52:00;;;;;;;5.03;2.80;;;;;;;;;;9502480;30;20451;-68
2023/05/23 12:56:54;;;;;;;6.05;2.88;;;;;;;;;;9502401;30;20394;-68
2023/05/23 13:01:48;;;;;;;8.93;2.65;;;;;;;;;;9492734;30;20101;-67
2023/05/23 13:06:41;;;;;;;5.40;3.00;;;;;;;;;;9483126;30;20061;-66
2023/05/23 13:11:36;;;;;;;5.03;2.35;;;;;;;;;;9510326;30;20066;-67
2023/05/23 13:16:30;;;;;;;2.97;2.63;;;;;;;;;;9502255;30;20409;-67
2023/05/23 13:21:23;;;;;;;4.17;2.77;;;;;;;;;;9504004;30;20062;-67
2023/05/23 13:26:18;;;;;;;2.73;2.40;;;;;;;;;;9498825;30;20049;-66
2023/05/23 13:31:12;;;;;;;4.47;2.75;;;;;;;;;;9497384;30;20060;-67
2023/05/23 13:36:07;;;;;;;7.90;2.70;;;;;;;;;;9507027;30;20425;-67
2023/05/23 13:41:01;;;;;;;4.50;2.33;;;;;;;;;;9494096;30;20497;-67
2023/05/23 13:45:54;;;;;;;2.85;2.42;;;;;;;;;;9503138;30;20176;-67
2023/05/23 13:50:49;;;;;;;2.60;2.40;;;;;;;;;;9504976;29;20107;-67
2023/05/23 13:55:44;;;;;;;6.18;3.42;;;;;;;;;;9499338;30;20059;-68
2023/05/23 14:00:39;;;;;;;4.47;3.40;;;;;;;;;;9500691;30;20052;-68
2023/05/23 14:05:34;;;;;;;6.82;3.67;;;;;;;;;;9505520;30;20135;-69
2023/05/23 14:10:28;;;;;;;6.30;3.25;;;;;;;;;;9493420;30;20087;-68
2023/05/23 14:15:21;;;;;;;8.57;3.90;;;;;;;;;;9499952;30;20059;-68
2023/05/23 14:20:17;;;;;;;4.18;3.60;;;;;;;;;;9497586;30;20056;-69
2023/05/23 14:25:10;;;;;;;6.38;3.90;;;;;;;;;;9500970;30;20416;-68
2023/05/23 14:30:06;;;;;;;5.13;3.83;;;;;;;;;;9497249;30;20417;-68
2023/05/23 14:35:00;;;;;;;5.68;3.92;;;;;;;;;;9494685;30;20066;-67
2023/05/23 14:39:54;;;;;;;4.97;4.13;;;;;;;;;;9495221;30;20140;-68
2023/05/23 14:44:48;;;;;;;5.15;4.20;;;;;;;;;;9503990;30;20064;-68
2023/05/23 14:49:42;;;;;;;8.63;4.15;;;;;;;;;;9493447;30;20147;-68
2023/05/23 14:54:39;;;;;;;5.53;3.92;;;;;;;;;;9480835;30;20433;-68
2023/05/23 14:59:33;;;;;;;7.30;5.00;;;;;;;;;;9501433;30;20493;-68
2023/05/23 15:04:26;;;;;;;6.45;4.18;;;;;;;;;;9477505;30;20060;-68
2023/05/23 15:09:21;;;;;;;4.50;4.00;;;;;;;;;;9500408;30;20402;-68
2023/05/23 15:14:16;;;;;;;6.78;4.03;;;;;;;;;;9515005;30;20091;-68
2023/05/23 15:19:10;;;;;;;8.18;4.93;;;;;;;;;;9496519;30;20135;-68
2023/05/23 15:24:05;;;;;;;4.55;4.10;;;;;;;;;;9499954;30;20429;-68
2023/05/23 15:29:00;;;;;;;4.78;4.05;;;;;;;;;;9500729;30;20552;-68
2023/05/23 15:33:54;;;;;;;6.78;4.35;;;;;;;;;;9490062;30;20074;-69
2023/05/23 15:38:49;;;;;;;5.43;4.93;;;;;;;;;;9495267;30;20110;-69
2023/05/23 15:43:43;;;;;;;7.70;5.15;;;;;;;;;;9497799;30;20673;-69
2023/05/23 15:48:37;;;;;;;5.93;4.47;;;;;;;;;;9496610;30;20056;-69
2023/05/23 15:53:31;;;;;;;9.45;4.90;;;;;;;;;;9497748;30;20101;-69
2023/05/23 15:58:35;;;;;;;12.23;6.60;;;;;;;;;;9502623;30;20059;-69
2023/05/23 16:03:29;;;;;;;8.77;5.07;;;;;;;;;;9503107;30;20505;-69
2023/05/23 16:08:22;;;;;;;5.75;4.55;;;;;;;;;;9494919;30;20060;-68
2023/05/23 16:13:17;;;;;;;6.00;4.70;;;;;;;;;;9496149;30;20060;-68
2023/05/23 16:18:10;;;;;;;4.43;3.92;;;;;;;;;;9482834;30;20059;-68
2023/05/23 16:23:04;;;;;;;7.90;4.72;;;;;;;;;;9496825;30;20434;-69
2023/05/23 16:27:59;;;;;;;10.40;4.28;;;;;;;;;;9497244;30;20132;-69
2023/05/23 16:32:55;;;;;;;8.77;3.78;;;;;;;;;;9516540;30;20070;-69
2023/05/23 16:37:48;;;;;;;7.05;4.20;;;;;;;;;;9502785;30;20106;-69
2023/05/23 16:42:41;;;;;;;6.13;4.22;;;;;;;;;;9515850;30;20078;-69
2023/05/23 16:47:35;;;;;;;4.32;3.88;;;;;;;;;;9499345;30;20052;-69
2023/05/23 16:52:29;;;;;;;9.32;4.50;;;;;;;;;;9501579;30;20195;-69
2023/05/23 16:57:23;;;;;;;4.63;4.22;;;;;;;;;;9502593;30;20489;-69
2023/05/23 17:02:17;;;;;;;5.72;4.05;;;;;;;;;;9504443;30;20056;-69
2023/05/23 17:07:12;;;;;;;6.88;4.47;;;;;;;;;;9510267;30;20087;-68
2023/05/23 17:12:06;;;;;;;7.82;4.28;;;;;;;;;;9508552;30;20143;-68
2023/05/23 17:17:02;;;;;;;8.48;5.43;;;;;;;;;;9509831;30;20064;-68
2023/05/23 17:21:59;;;;;;;5.33;4.77;;;;;;;;;;9509374;30;20412;-68
2023/05/23 17:26:53;;;;;;;7.82;5.03;;;;;;;;;;9486097;30;20052;-68
2023/05/23 17:31:47;;;;;;;12.57;4.80;;;;;;;;;;9507994;30;20164;-69
2023/05/23 17:36:41;;;;;;;9.65;5.47;;;;;;;;;;9500380;30;20126;-69
2023/05/23 17:41:35;;;;;;;10.98;5.07;;;;;;;;;;9485380;30;20076;-67
2023/05/23 17:46:29;;;;;;;6.22;4.47;;;;;;;;;;9504308;30;20056;-66
2023/05/23 17:51:23;;;;;;;5.93;4.70;;;;;;;;;;9501025;30;20068;-71
2023/05/23 17:56:21;;;;;;;6.07;4.65;;;;;;;;;;9500410;30;20131;-73
2023/05/23 18:01:17;;;;;;;9.85;5.05;;;;;;;;;;9496030;30;20068;-72
2023/05/23 18:06:09;;;;;;;7.53;5.95;;;;;;;;;;9498324;30;20413;-73
2023/05/23 18:11:03;;;;;;;6.82;5.90;;;;;;;;;;9501755;30;20560;-73
2023/05/23 18:15:59;;;;;;;6.32;5.43;;;;;;;;;;9499377;30;20149;-72
2023/05/23 18:20:57;;;;;;;9.60;5.00;;;;;;;;;;9500530;30;20122;-71
2023/05/23 18:25:51;;;;;;;7.80;5.10;;;;;;;;;;9501081;30;20060;-70
2023/05/23 18:30:44;;;;;;;5.85;5.10;;;;;;;;;;9500990;30;20127;-71
2023/05/23 18:35:38;;;;;;;9.57;5.65;;;;;;;;;;9514476;30;20441;-70
2023/05/23 18:40:33;;;;;;;6.35;5.70;;;;;;;;;;9500838;30;20516;-71
2023/05/23 18:45:27;;;;;;;7.97;5.18;;;;;;;;;;9499614;30;20083;-70
2023/05/23 18:50:21;;;;;;;8.70;6.20;;;;;;;;;;9500402;30;20105;-70
2023/05/23 18:55:15;;;;;;;9.13;6.10;;;;;;;;;;9499600;30;20056;-68
2023/05/23 19:00:11;;;;;;;9.90;5.85;;;;;;;;;;9497184;30;20087;-71
2023/05/23 19:05:07;;;;;;;11.60;6.43;;;;;;;;;;9496433;30;20056;-67
2023/05/23 19:10:01;;;;;;;11.52;7.03;;;;;;;;;;9499858;30;20072;-69
2023/05/23 19:14:55;;;;;;;8.00;6.53;;;;;;;;;;9496472;30;20147;-68
2023/05/23 19:19:48;;;;;;;9.60;6.50;;;;;;;;;;9497457;30;20059;-68
2023/05/23 19:24:43;;;;;;;9.73;7.53;;;;;;;;;;9497638;30;20100;-69
2023/05/23 19:29:37;;;;;;;7.13;6.43;;;;;;;;;;9497354;30;20056;-67
2023/05/23 19:34:31;;;;;;;9.18;6.28;;;;;;;;;;9511369;30;20075;-67
2023/05/23 19:39:26;;;;;;;7.38;6.35;;;;;;;;;;9497237;30;20143;-67
2023/05/23 19:44:20;;;;;;;7.72;6.18;;;;;;;;;;9499818;30;20114;-68
2023/05/23 19:49:16;;;;;;;8.50;6.53;;;;;;;;;;9496194;30;20083;-72
2023/05/23 19:54:09;;;;;;;7.63;5.95;;;;;;;;;;9496364;30;20463;-65
2023/05/23 19:59:05;;;;;;;9.18;6.00;;;;;;;;;;9496823;29;20118;-71
2023/05/23 20:03:58;;;;;;;6.82;6.22;;;;;;;;;;9488645;30;20459;-70
2023/05/23 20:08:52;;;;;;;8.40;6.57;;;;;;;;;;9506518;30;20060;-68
2023/05/23 20:13:47;;;;;;;8.13;6.75;;;;;;;;;;9494770;30;20052;-69
2023/05/23 20:18:41;;;;;;;7.75;6.38;;;;;;;;;;9495860;30;20063;-70
2023/05/23 20:23:35;;;;;;;7.85;7.10;;;;;;;;;;9492652;30;20064;-68
2023/05/23 20:28:28;;;;;;;9.73;7.03;;;;;;;;;;9495646;30;20056;-68
2023/05/23 20:33:22;;;;;;;10.38;6.90;;;;;;;;;;9494753;29;20064;-70
2023/05/23 20:38:18;;;;;;;11.38;6.80;;;;;;;;;;9491605;30;20159;-69
2023/05/23 20:43:13;;;;;;;8.07;6.80;;;;;;;;;;9499911;30;20120;-70
2023/05/23 20:48:08;;;;;;;9.80;6.45;;;;;;;;;;9505348;30;20060;-69
2023/05/23 20:53:01;;;;;;;7.05;6.43;;;;;;;;;;9506533;30;20056;-68
2023/05/23 20:57:54;;;;;;;11.27;7.88;;;;;;;;;;9505400;30;20052;-68
2023/05/23 21:02:49;;;;;;;9.10;7.63;;;;;;;;;;9498827;30;20064;-69
2023/05/23 21:07:42;;;;;;;11.50;7.60;;;;;;;;;;9500417;30;20143;-68
2023/05/23 21:12:36;;;;;;;11.15;7.25;;;;;;;;;;9504137;30;20091;-72
2023/05/23 21:17:31;;;;;;;10.98;7.20;;;;;;;;;;9501239;30;20056;-68
2023/05/23 21:22:24;;;;;;;9.98;6.78;;;;;;;;;;9503811;30;20148;-68
2023/05/23 21:27:17;;;;;;;8.77;6.70;;;;;;;;;;9504800;30;20059;-68
2023/05/23 21:32:11;;;;;;;8.40;7.25;;;;;;;;;;9502796;30;20108;-69
2023/05/23 21:37:04;;;;;;;7.90;7.10;;;;;;;;;;9502250;30;20062;-68
2023/05/23 21:41:57;;;;;;;9.85;7.75;;;;;;;;;;9504292;30;20060;-70
2023/05/23 21:46:53;;;;;;;7.15;6.55;;;;;;;;;;9503215;30;20063;-71
2023/05/23 21:51:47;;;;;;;8.60;7.18;;;;;;;;;;9502721;30;20719;-70
2023/05/23 21:56:41;;;;;;;7.88;7.07;;;;;;;;;;9502635;30;20588;-69
2023/05/23 22:01:35;;;;;;;8.07;6.22;;;;;;;;;;9495880;30;20131;-69
2023/05/23 22:06:28;;;;;;;8.25;7.25;;;;;;;;;;9499577;30;20104;-69
2023/05/23 22:11:21;;;;;;;8.20;6.93;;;;;;;;;;9499121;30;20071;-69
2023/05/23 22:16:14;;;;;;;9.20;6.95;;;;;;;;;;9501003;30;20461;-69
2023/05/23 22:21:08;;;;;;;9.32;7.57;;;;;;;;;;9502738;30;20063;-67
2023/05/23 22:26:03;;;;;;;11.68;10.50;;;;;;;;;;9502955;30;20158;-69
2023/05/23 22:30:57;;;;;;;10.73;9.73;;;;;;;;;;9504308;30;20056;-73
2023/05/23 22:35:51;;;;;;;10.60;9.70;;;;;;;;;;9505281;30;20060;-73
2023/05/23 22:40:45;;;;;;;14.50;10.20;;;;;;;;;;9505544;30;20048;-72
2023/05/23 22:45:41;;;;;;;11.63;10.05;;;;;;;;;;9520887;30;20432;-73
2023/05/23 22:50:39;;;;;;;8.65;7.82;;;;;;;;;;9520541;30;20060;-74
2023/05/23 22:55:34;;;;;;;11.98;8.98;;;;;;;;;;9496718;30;20048;-74
2023/05/23 23:00:27;;;;;;;11.18;9.27;;;;;;;;;;9504228;30;20060;-74
2023/05/23 23:05:21;;;;;;;12.18;10.13;;;;;;;;;;9505640;30;20079;-74
2023/05/23 23:10:15;;;;;;;13.05;11.20;;;;;;;;;;9495013;30;20408;-73
2023/05/23 23:15:10;;;;;;;10.65;9.65;;;;;;;;;;9501631;30;20071;-73
2023/05/23 23:20:07;;;;;;;11.18;10.18;;;;;;;;;;9504959;30;20110;-73
2023/05/23 23:25:09;;;;;;;11.63;9.77;;;;;;;;;;9505628;30;20056;-73
2023/05/23 23:30:06;;;;;;;11.63;9.50;;;;;;;;;;9503852;30;20122;-73
2023/05/23 23:35:00;;;;;;;10.27;9.35;;;;;;;;;;9504460;30;20052;-73
2023/05/23 23:39:52;;;;;;;12.20;9.27;;;;;;;;;;9502443;30;20098;-73
2023/05/23 23:44:46;;;;;;;11.55;10.35;;;;;;;;;;9494939;30;20056;-73
2023/05/23 23:49:41;;;;;;;11.98;9.57;;;;;;;;;;9502289;30;20548;-73
2023/05/23 23:54:35;;;;;;;11.07;9.70;;;;;;;;;;9504161;30;20070;-73
2023/05/23 23:59:28;;;;;;;12.63;8.73;;;;;;;;;;9504788;30;20052;-72
